CheckWX is a tool to help pilots better visualize weather data.  It is not intended as a substitute for an official pre-flight weather briefing.

18:02:28 UTC

KONM METAR
Socorro Municipal Airport
Socorro, New Mexico, USA
Current

27 mins ago

KONM 171735Z AUTO 13004KT 10SM SCT070 05/M09 A2993 RMK AO2 T00451086
Observed
Feb-17 @ 17:35 UTC
Wind
  • 130° at 4 KTS
Visibility
10 SM
Flight Rules
VFR
Cloud Levels
  • Scattered at 7,000' AGL
Temperature
C / 41°F
Dewpoint
-9°C / 16°F
Humidity
36%
Altimeter
29.93" Hg
Pressure
1013.52 hPa
Previous

47 mins ago

KONM 171715Z AUTO 23003KT 10SM CLR 05/M07 A2993 RMK AO2 T00511072
Observed
Feb-17 @ 17:15 UTC
Wind
  • 230° at 3 KTS
Visibility
10 SM
Flight Rules
VFR
Cloud Levels
  • Clear skies
Temperature
C / 41°F
Dewpoint
-7°C / 19°F
Humidity
42%
Altimeter
29.93" Hg
Pressure
1013.52 hPa
Previous

1 hour ago

KONM 171655Z AUTO 17004KT 10SM CLR 04/M06 A2994 RMK AO2 T00401063
Observed
Feb-17 @ 16:55 UTC
Wind
  • 170° at 4 KTS
Visibility
10 SM
Flight Rules
VFR
Cloud Levels
  • Clear skies
Temperature
C / 39°F
Dewpoint
-6°C / 21°F
Humidity
48%
Altimeter
29.94" Hg
Pressure
1013.92 hPa